Destin, FL (32550)

1:57 AM CDT on August 01, 2015 (GMT -0500)
Bayside Subdivision | | Change Station
CLOSE
Current Station
Personal Weather Station
Location: Miramar Beach, FL
Elevation: 25 ft
Nearby Weather Stations

Elev 25 ft 30.38 °N, 86.35 °W | Updated 4 seconds ago

Clear
Clear
80.5 °F
Feels Like 87 °F
N
1.0
Wind Variable Wind from ENE
Gusts 2.0 mph

Today
High -- | Low -- °F
--% Chance of Precip.
Yesterday
High -- | Low -- °F
Precip. -- in
6:03 AM 7:39 PM
Full, 99% visible
Pressure 29.85 in
Visibility 10.0 miles
Clouds Clear
Heat Index 87 °F
Dew Point 77 °F
Humidity 90%
Rainfall 0.00 in
Snow Depth Not available.
UV 0 out of 12
Pollen 3.30 out of 12
Air Quality Not available.
Flu Activity Not available.
METAR KDTS 010653Z AUTO 08003KT 10SM CLR 27/25 A2985 RMK AO2 SLP108 T02720250 TSNO

More Conditions Fewer Conditions

Pressure 29.85 in
Visibility 10.0 miles
Clouds Clear
Heat Index 87 °F
Dew Point 77 °F
Humidity 90%
Rainfall 0.00 in
Snow Depth Not available.
UV 0 out of 12
Pollen 3.30 out of 12
Air Quality Not available.
Flu Activity Not available.
METAR KDTS 010653Z AUTO 08003KT 10SM CLR 27/25 A2985 RMK AO2 SLP108 T02720250 TSNO

More Conditions Fewer Conditions

10-Day Weather Forecast

×

Almanac

Astronomy

Aug. 01, 2015 Rise Set
Actual Time
Civil Twilight
Nautical Twilight
Astronomical Twilight
Moon
Length of Visible Light
Length of Day
Tomorrow will be .
, % of the Moon is Illuminated

Today's Extremes

State Highs State Lows

Community

WunderPhotos

Upload Photos

1,842,891 photos uploaded!

WunderBlogs® & News

Nearby

Air Quality

  Air Quality AQ Index Pollutant
Not available.

Snow Depth

Station Depth Elevation

Earthquake Activity

City Distance Mag. Time & Date
Minimum magnitude displayed is 2.5.

Coastal Water Temperatures

Place Temperature

Stations

Nearby Weather Stations

Station Location Temp. Windchill Dew Point Humidity Wind Precip. Elev Updated Type